createdAt,value
2019-03-11T00:00:37.024Z,99615.22
2019-03-11T00:01:44.023Z,99614.77
2019-03-11T00:02:48.755Z,99623.75
2019-03-11T00:03:53.052Z,99618.08
2019-03-11T00:04:57.461Z,99626.41
2019-03-11T00:06:01.845Z,99621.47
2019-03-11T00:07:06.213Z,99626.10
2019-03-11T00:08:10.488Z,99625.09
2019-03-11T00:09:14.896Z,99627.94
2019-03-11T00:10:19.213Z,99619.27
2019-03-11T00:11:23.668Z,99630.09
2019-03-11T00:12:28.038Z,99627.25
2019-03-11T00:13:32.258Z,99629.77
2019-03-11T00:14:36.608Z,99628.44
2019-03-11T00:15:40.873Z,99632.06
2019-03-11T00:16:45.297Z,99631.73
2019-03-11T00:17:49.864Z,99631.88
2019-03-11T00:18:54.152Z,99631.23
2019-03-11T00:19:58.680Z,99637.88
2019-03-11T00:21:02.862Z,99635.04
2019-03-11T00:22:07.190Z,99639.72
2019-03-11T00:23:11.560Z,99643.86
2019-03-11T00:24:15.897Z,99636.38
2019-03-11T00:25:20.443Z,99641.70
2019-03-11T00:26:24.752Z,99643.53
2019-03-11T00:27:29.041Z,99644.40
2019-03-11T00:28:33.499Z,99642.75
2019-03-11T00:29:37.940Z,99638.75
2019-03-11T00:30:42.276Z,99640.41
2019-03-11T00:31:46.593Z,99647.25
2019-03-11T00:32:50.880Z,99645.78
2019-03-11T00:33:55.168Z,99649.77
2019-03-11T00:34:59.453Z,99650.45
2019-03-11T00:36:03.804Z,99658.75
2019-03-11T00:37:08.166Z,99655.73
2019-03-11T00:38:12.510Z,99661.05
2019-03-11T00:39:16.894Z,99660.87
2019-03-11T00:40:21.132Z,99664.67
2019-03-11T00:41:25.468Z,99659.86
2019-03-11T00:42:29.856Z,99662.34
2019-03-11T00:43:34.089Z,99664.31
2019-03-11T00:44:38.586Z,99669.98
2019-03-11T00:45:42.870Z,99661.83
2019-03-11T00:46:47.337Z,99662.66
2019-03-11T00:48:01.380Z,99662.48
2019-03-11T00:48:56.147Z,99663.48
2019-03-11T00:50:00.587Z,99664.30
2019-03-11T00:51:05.037Z,99666.64
2019-03-11T00:52:09.384Z,99670.13
2019-03-11T00:53:13.698Z,99668.98
2019-03-11T00:54:18.131Z,99672.66
2019-03-11T00:55:22.577Z,99671.00
2019-03-11T00:56:26.908Z,99673.66
2019-03-11T00:57:31.214Z,99680.64
2019-03-11T00:58:35.601Z,99677.66
2019-03-11T00:59:39.881Z,99674.67
2019-03-11T01:00:44.126Z,99682.69
2019-03-11T01:01:48.509Z,99676.54
2019-03-11T01:02:52.774Z,99674.06
2019-03-11T01:03:57.166Z,99681.72
2019-03-11T01:05:01.406Z,99683.05
2019-03-11T01:06:06.006Z,99683.73
2019-03-11T01:07:10.219Z,99683.73
2019-03-11T01:08:14.724Z,99682.05
2019-03-11T01:09:19.059Z,99684.73
2019-03-11T01:10:23.398Z,99686.24
2019-03-11T01:11:27.598Z,99689.55
2019-03-11T01:12:31.939Z,99684.41
2019-03-11T01:13:36.215Z,99689.08
2019-03-11T01:14:40.553Z,99689.41
2019-03-11T01:15:44.624Z,99688.76
2019-03-11T01:16:48.701Z,99693.07
2019-03-11T01:17:52.800Z,99701.88
2019-03-11T01:18:56.744Z,99695.05
2019-03-11T01:20:01.197Z,99699.39
2019-03-11T01:21:05.635Z,99692.39
2019-03-11T01:22:09.992Z,99703.85
2019-03-11T01:23:14.267Z,99700.69
2019-03-11T01:24:18.654Z,99704.67
2019-03-11T01:25:23.001Z,99700.36
2019-03-11T01:26:27.380Z,99706.19
2019-03-11T01:27:31.637Z,99708.34
2019-03-11T01:28:35.941Z,99712.51
2019-03-11T01:29:40.216Z,99707.69
2019-03-11T01:30:44.460Z,99715.70
2019-03-11T01:31:51.721Z,99714.57
2019-03-11T01:32:56.045Z,99711.73
2019-03-11T01:34:00.360Z,99716.05
2019-03-11T01:35:04.574Z,99710.91
2019-03-11T01:36:08.945Z,99718.73
2019-03-11T01:37:13.254Z,99718.73
2019-03-11T01:38:17.630Z,99715.06
2019-03-11T01:39:21.955Z,99719.05
2019-03-11T01:40:32.800Z,99717.72
2019-03-11T01:41:37.174Z,99720.38
2019-03-11T01:42:41.411Z,99718.72
2019-03-11T01:43:45.760Z,99722.71
2019-03-11T01:44:50.247Z,99721.05
2019-03-11T01:45:54.601Z,99730.05
2019-03-11T01:46:58.842Z,99726.22
2019-03-11T01:48:03.258Z,99726.41
2019-03-11T01:49:07.630Z,99727.74
2019-03-11T01:50:12.300Z,99732.73
2019-03-11T01:51:16.757Z,99727.09
2019-03-11T01:52:21.055Z,99727.06
2019-03-11T01:53:25.453Z,99729.22
2019-03-11T01:54:29.802Z,99732.73
2019-03-11T01:55:33.984Z,99732.73
2019-03-11T01:56:38.271Z,99736.86
2019-03-11T01:57:42.608Z,99732.05
2019-03-11T01:58:47.108Z,99734.20
2019-03-11T01:59:51.696Z,99730.06
2019-03-11T02:00:56.045Z,99734.55
2019-03-11T02:02:00.500Z,99734.22
2019-03-11T02:03:04.878Z,99739.36
2019-03-11T02:04:09.210Z,99736.70
2019-03-11T02:05:13.665Z,99737.53
2019-03-11T02:06:17.908Z,99741.35
2019-03-11T02:07:22.195Z,99745.02
2019-03-11T02:08:26.604Z,99745.02
2019-03-11T02:09:30.980Z,99745.70
2019-03-11T02:10:35.283Z,99741.05
2019-03-11T02:11:39.627Z,99747.67
2019-03-11T02:12:43.934Z,99744.02
2019-03-11T02:13:48.352Z,99749.00
2019-03-11T02:14:52.819Z,99749.33
2019-03-11T02:15:57.299Z,99753.00
2019-03-11T02:17:01.615Z,99756.64
2019-03-11T02:18:06.204Z,99754.33
2019-03-11T02:19:10.562Z,99754.64
2019-03-11T02:20:15.194Z,99754.64
2019-03-11T02:21:19.468Z,99765.44
2019-03-11T02:22:23.828Z,99759.64
2019-03-11T02:23:28.117Z,99757.97
2019-03-11T02:24:32.562Z,99767.94
2019-03-11T02:25:36.892Z,99761.64
2019-03-11T02:26:41.184Z,99762.78
2019-03-11T02:27:45.356Z,99767.13
2019-03-11T02:28:49.744Z,99768.77
2019-03-11T02:29:54.070Z,99769.92
2019-03-11T02:30:58.367Z,99771.59
2019-03-11T02:32:02.727Z,99779.08
2019-03-11T02:33:07.179Z,99776.88
2019-03-11T02:34:11.438Z,99775.22
2019-03-11T02:35:19.974Z,99774.22
2019-03-11T02:36:24.202Z,99776.90
2019-03-11T02:37:28.457Z,99776.42
2019-03-11T02:38:33.090Z,99773.27
2019-03-11T02:39:37.515Z,99775.75
2019-03-11T02:40:41.781Z,99776.75
2019-03-11T02:41:46.207Z,99777.89
2019-03-11T02:42:50.455Z,99774.58
2019-03-11T02:43:54.817Z,99781.55
2019-03-11T02:44:59.141Z,99782.06
2019-03-11T02:46:03.563Z,99788.53
2019-03-11T02:47:08.298Z,99788.52
2019-03-11T02:48:12.666Z,99790.86
2019-03-11T02:49:17.229Z,99797.83
2019-03-11T02:50:21.441Z,99790.84
2019-03-11T02:51:25.807Z,99791.36
2019-03-11T02:52:30.161Z,99787.52
2019-03-11T02:53:34.526Z,99798.14
2019-03-11T02:54:38.805Z,99797.50
2019-03-11T02:55:43.152Z,99800.48
2019-03-11T02:56:47.461Z,99802.48
2019-03-11T02:57:51.839Z,99799.66
2019-03-11T02:58:56.110Z,99798.83
2019-03-11T03:00:00.668Z,99796.17
2019-03-11T03:01:09.930Z,99801.98
2019-03-11T03:02:25.107Z,99804.12
2019-03-11T03:03:40.477Z,99811.41
2019-03-11T03:04:48.542Z,99809.13
2019-03-11T03:05:56.033Z,99802.79
2019-03-11T03:07:00.316Z,99810.09
2019-03-11T03:08:04.704Z,99813.73
2019-03-11T03:09:13.420Z,99815.56
2019-03-11T03:10:17.721Z,99805.45
2019-03-11T03:11:22.076Z,99815.90
2019-03-11T03:12:26.395Z,99819.38
2019-03-11T03:13:30.677Z,99809.10
2019-03-11T03:14:34.936Z,99816.09
2019-03-11T03:15:39.309Z,99819.40
2019-03-11T03:16:43.598Z,99816.58
2019-03-11T03:17:48.070Z,99810.44
2019-03-11T03:18:52.434Z,99818.73
2019-03-11T03:19:56.612Z,99815.08
2019-03-11T03:21:00.885Z,99818.42
2019-03-11T03:22:05.252Z,99818.75
2019-03-11T03:23:09.451Z,99817.92
2019-03-11T03:24:13.794Z,99825.37
2019-03-11T03:25:32.228Z,99820.23
2019-03-11T03:26:22.296Z,99824.22
2019-03-11T03:27:26.664Z,99820.08
2019-03-11T03:28:31.048Z,99824.88
2019-03-11T03:29:35.389Z,99828.70
2019-03-11T03:30:39.729Z,99832.35
2019-03-11T03:31:44.106Z,99823.37
2019-03-11T03:32:48.535Z,99835.81
2019-03-11T03:33:52.891Z,99839.29
2019-03-11T03:34:57.257Z,99840.61
2019-03-11T03:36:01.590Z,99835.99
2019-03-11T03:37:05.937Z,99836.16
2019-03-11T03:38:10.268Z,99839.98
2019-03-11T03:39:14.500Z,99845.29
2019-03-11T03:40:18.947Z,99846.62
2019-03-11T03:41:23.315Z,99850.27
2019-03-11T03:42:27.698Z,99849.44
2019-03-11T03:43:32.099Z,99850.08
2019-03-11T03:44:36.525Z,99844.11
2019-03-11T03:45:44.311Z,99850.58
2019-03-11T03:46:48.551Z,99847.92
2019-03-11T03:47:52.847Z,99852.74
2019-03-11T03:48:57.122Z,99851.39
2019-03-11T03:50:01.489Z,99854.73
2019-03-11T03:51:05.902Z,99856.06
2019-03-11T03:52:10.284Z,99865.16
2019-03-11T03:53:14.484Z,99865.98
2019-03-11T03:54:18.935Z,99861.01
2019-03-11T03:55:23.279Z,99866.52
2019-03-11T03:56:27.609Z,99866.52
2019-03-11T03:57:31.936Z,99864.49
2019-03-11T03:58:36.234Z,99866.52
2019-03-11T03:59:40.519Z,99863.69
2019-03-11T04:00:44.858Z,99865.02
2019-03-11T04:01:49.042Z,99868.34
2019-03-11T04:02:53.272Z,99870.50
2019-03-11T04:03:57.565Z,99871.49
2019-03-11T04:05:01.855Z,99866.48
2019-03-11T04:06:06.401Z,99879.77
2019-03-11T04:07:10.794Z,99869.48
2019-03-11T04:08:14.981Z,99878.77
2019-03-11T04:09:19.318Z,99873.63
2019-03-11T04:10:23.771Z,99876.45
2019-03-11T04:11:28.126Z,99872.94
2019-03-11T04:12:32.418Z,99871.77
2019-03-11T04:13:36.930Z,99872.47
2019-03-11T04:14:41.265Z,99872.80
2019-03-11T04:15:45.545Z,99878.44
2019-03-11T04:16:49.898Z,99872.13
2019-03-11T04:17:54.081Z,99877.44
2019-03-11T04:18:58.519Z,99879.09
2019-03-11T04:20:02.965Z,99874.78
2019-03-11T04:21:07.474Z,99882.91
2019-03-11T04:22:11.812Z,99885.23
2019-03-11T04:23:16.162Z,99888.39
2019-03-11T04:24:20.604Z,99884.08
2019-03-11T04:25:25.144Z,99890.38
2019-03-11T04:26:30.638Z,99891.05
2019-03-11T04:27:35.152Z,99894.70
2019-03-11T04:28:39.397Z,99890.71
2019-03-11T04:29:43.729Z,99890.38
2019-03-11T04:30:48.016Z,99896.35
2019-03-11T04:31:52.414Z,99893.03
2019-03-11T04:32:56.854Z,99898.68
2019-03-11T04:34:01.298Z,99896.69
2019-03-11T04:35:06.270Z,99896.36
2019-03-11T04:36:10.650Z,99897.35
2019-03-11T04:37:15.013Z,99903.98
2019-03-11T04:38:19.308Z,99909.47
2019-03-11T04:39:23.535Z,99908.97
2019-03-11T04:40:28.018Z,99909.47
2019-03-11T04:41:32.352Z,99911.79
2019-03-11T04:42:36.701Z,99912.63
2019-03-11T04:43:41.179Z,99910.10
2019-03-11T04:44:45.489Z,99914.58
2019-03-11T04:45:49.860Z,99918.06
2019-03-11T04:46:54.308Z,99910.27
2019-03-11T04:47:58.889Z,99920.88
2019-03-11T04:49:03.197Z,99918.53
2019-03-11T04:50:08.738Z,99915.05
2019-03-11T04:51:13.277Z,99922.51
2019-03-11T04:52:17.660Z,99916.50
2019-03-11T04:53:22.044Z,99921.31
2019-03-11T04:54:26.394Z,99926.13
2019-03-11T04:55:30.659Z,99927.62
2019-03-11T04:56:35.071Z,99925.79
2019-03-11T04:57:47.875Z,99927.78
2019-03-11T04:58:52.191Z,99930.40
2019-03-11T04:59:56.561Z,99931.09
2019-03-11T05:01:00.860Z,99928.11
2019-03-11T05:02:05.081Z,99925.42
2019-03-11T05:03:09.422Z,99925.42
2019-03-11T05:04:13.766Z,99926.75
2019-03-11T05:05:18.157Z,99924.76
2019-03-11T05:06:22.610Z,99944.16
2019-03-11T05:07:26.828Z,99935.38
2019-03-11T05:08:31.247Z,99940.34
2019-03-11T05:09:35.669Z,99949.30
2019-03-11T05:10:39.933Z,99941.88
2019-03-11T05:11:44.288Z,99948.64
2019-03-11T05:12:48.931Z,99946.48
2019-03-11T05:13:53.363Z,99943.00
2019-03-11T05:14:57.651Z,99947.81
2019-03-11T05:16:02.091Z,99951.62
2019-03-11T05:17:06.397Z,99954.28
2019-03-11T05:18:10.824Z,99949.63
2019-03-11T05:19:16.162Z,99949.30
2019-03-11T05:20:20.759Z,99946.31
2019-03-11T05:21:57.853Z,99951.95
2019-03-11T05:23:14.579Z,99951.79
2019-03-11T05:33:19.258Z,99955.61
2019-03-11T05:34:23.613Z,99970.58
2019-03-11T05:35:27.949Z,99974.89
2019-03-11T05:36:32.428Z,99974.52
2019-03-11T05:37:36.744Z,99974.55
2019-03-11T05:38:41.133Z,99976.55
2019-03-11T05:39:45.488Z,99978.53
2019-03-11T05:40:49.944Z,99980.86
2019-03-11T05:41:54.313Z,99982.02
2019-03-11T05:42:58.592Z,99978.87
2019-03-11T05:44:02.902Z,99977.87
2019-03-11T05:45:08.348Z,99974.05
2019-03-11T05:46:12.670Z,99984.34
2019-03-11T05:47:17.110Z,99986.17
2019-03-11T05:48:21.461Z,99987.20
2019-03-11T05:49:25.909Z,99987.88
2019-03-11T05:50:30.156Z,99982.23
2019-03-11T05:51:34.628Z,99990.20
2019-03-11T05:52:38.997Z,99987.88
2019-03-11T05:53:43.309Z,99990.20
2019-03-11T05:54:47.670Z,99990.85
2019-03-11T05:55:52.127Z,99991.34
2019-03-11T05:56:58.960Z,99995.83
2019-03-11T05:58:00.856Z,99993.80
2019-03-11T05:59:05.008Z,99995.45
2019-03-11T06:00:12.754Z,99996.83
2019-03-11T06:01:17.053Z,99997.83
2019-03-11T06:02:21.258Z,99997.53
2019-03-11T06:03:25.603Z,100008.81
2019-03-11T06:04:29.965Z,100001.84
2019-03-11T06:05:34.430Z,100011.30
2019-03-11T06:06:38.930Z,100004.00
2019-03-11T06:07:43.123Z,100007.48
2019-03-11T06:08:47.471Z,100004.83
2019-03-11T06:09:51.747Z,100004.67
2019-03-11T06:10:56.081Z,100003.47
2019-03-11T06:12:00.455Z,100011.43
2019-03-11T06:13:04.679Z,100011.92
2019-03-11T06:14:09.154Z,100012.08
2019-03-11T06:15:13.573Z,100003.13
2019-03-11T06:16:17.799Z,100005.45
2019-03-11T06:17:22.205Z,100011.42
2019-03-11T06:18:59.117Z,100009.73
2019-03-11T06:20:07.499Z,100018.72
2019-03-11T06:21:20.125Z,100014.08
2019-03-11T06:22:27.414Z,100019.06
2019-03-11T06:23:31.746Z,100019.39
2019-03-11T06:24:36.275Z,100019.93
2019-03-11T06:25:40.518Z,100022.92
2019-03-11T06:26:44.952Z,100024.70
2019-03-11T06:27:49.320Z,100023.74
2019-03-11T06:28:53.302Z,100029.51
2019-03-11T06:29:57.425Z,100027.17
2019-03-11T06:31:01.838Z,100030.66
2019-03-11T06:32:06.292Z,100033.66
2019-03-11T06:33:10.621Z,100037.80
2019-03-11T06:34:14.966Z,100032.82
2019-03-11T06:35:19.359Z,100037.63
2019-03-11T06:36:23.770Z,100033.94
2019-03-11T06:37:28.217Z,100043.94
2019-03-11T06:38:32.567Z,100044.11
2019-03-11T06:39:36.780Z,100044.94
2019-03-11T06:40:41.159Z,100045.92
2019-03-11T06:41:45.443Z,100044.94
2019-03-11T06:42:49.892Z,100046.27
2019-03-11T06:43:54.142Z,100048.26
2019-03-11T06:44:58.445Z,100044.81
2019-03-11T06:46:02.725Z,100051.63
2019-03-11T06:47:07.067Z,100055.28
2019-03-11T06:48:11.590Z,100053.95
2019-03-11T06:49:15.964Z,100045.53
2019-03-11T06:50:20.200Z,100041.72
2019-03-11T06:51:24.544Z,100046.73
2019-03-11T06:52:28.893Z,100054.70
2019-03-11T06:53:33.423Z,100045.78
2019-03-11T06:54:37.728Z,100051.59
2019-03-11T06:55:42.031Z,100050.01
2019-03-11T06:56:46.401Z,100043.71
2019-03-11T06:57:50.862Z,100056.53
2019-03-11T06:58:55.230Z,100053.38
2019-03-11T06:59:59.457Z,100051.21
2019-03-11T07:01:03.783Z,100063.83
2019-03-11T07:02:08.076Z,100054.53
2019-03-11T07:03:12.389Z,100060.97
2019-03-11T07:04:16.761Z,100061.50
2019-03-11T07:05:21.300Z,100068.14
2019-03-11T07:06:25.533Z,100058.52
2019-03-11T07:07:29.797Z,100068.64
2019-03-11T07:08:34.071Z,100065.00
2019-03-11T07:09:38.505Z,100072.63
2019-03-11T07:10:42.801Z,100066.33
2019-03-11T07:11:47.098Z,100073.83
2019-03-11T07:12:51.408Z,100077.48
2019-03-11T07:13:55.788Z,100084.30
2019-03-11T07:15:00.251Z,100080.14
2019-03-11T07:16:04.609Z,100074.99
2019-03-11T07:17:08.913Z,100081.59
2019-03-11T07:18:13.325Z,100080.25
2019-03-11T07:19:17.483Z,100084.84
2019-03-11T07:20:21.878Z,100076.56
2019-03-11T07:21:26.152Z,100083.36
2019-03-11T07:22:30.259Z,100080.05
2019-03-11T07:23:34.814Z,100079.88
2019-03-11T07:24:39.091Z,100081.87
2019-03-11T07:25:43.427Z,100080.55
2019-03-11T07:26:47.789Z,100091.87
2019-03-11T07:27:52.068Z,100087.23
2019-03-11T07:28:56.403Z,100085.03
2019-03-11T07:30:00.679Z,100084.20
2019-03-11T07:31:05.192Z,100080.25
2019-03-11T07:32:09.442Z,100091.22
2019-03-11T07:33:13.730Z,100085.08
2019-03-11T07:34:18.079Z,100082.96
2019-03-11T07:35:22.478Z,100088.89
2019-03-11T07:36:26.727Z,100084.91
2019-03-11T07:37:31.063Z,100088.23
2019-03-11T07:38:35.598Z,100095.53
2019-03-11T07:39:40.056Z,100087.80
2019-03-11T07:40:44.517Z,100094.47
2019-03-11T07:41:48.997Z,100090.00
2019-03-11T07:42:53.323Z,100101.66
2019-03-11T07:43:57.552Z,100098.52
2019-03-11T07:45:01.757Z,100101.17
2019-03-11T07:46:06.156Z,100105.83
2019-03-11T07:47:10.530Z,100112.46
2019-03-11T07:48:14.989Z,100104.20
2019-03-11T07:49:19.405Z,100099.34
2019-03-11T07:50:23.608Z,100108.59
2019-03-11T07:51:27.877Z,100109.13
2019-03-11T07:52:32.374Z,100105.77
2019-03-11T08:05:56.537Z,100113.12
2019-03-11T08:07:00.807Z,100126.58
2019-03-11T08:08:05.234Z,100124.08
2019-03-11T08:09:09.609Z,100119.10
2019-03-11T08:10:14.378Z,100124.08
2019-03-11T08:11:18.777Z,100121.75
2019-03-11T08:12:23.247Z,100128.06
2019-03-11T08:13:27.358Z,100132.20
2019-03-11T08:14:31.560Z,100126.58
2019-03-11T08:15:35.935Z,100131.38
2019-03-11T08:16:40.332Z,100132.70
2019-03-11T08:17:44.582Z,100133.70
2019-03-11T08:18:48.910Z,100134.80
2019-03-11T08:19:53.309Z,100135.13
2019-03-11T08:20:57.579Z,100141.44
2019-03-11T08:22:01.970Z,100142.06
2019-03-11T08:23:06.277Z,100143.59
2019-03-11T08:24:10.767Z,100144.14
2019-03-11T08:25:15.356Z,100141.00
2019-03-11T08:26:19.622Z,100139.50
2019-03-11T08:27:24.001Z,100143.32
2019-03-11T08:28:28.263Z,100146.64
2019-03-11T08:29:32.516Z,100145.14
2019-03-11T08:30:36.897Z,100152.66
2019-03-11T08:31:41.518Z,100154.66
2019-03-11T08:32:45.702Z,100145.20
2019-03-11T08:33:50.025Z,100151.72
2019-03-11T08:34:54.334Z,100146.57
2019-03-11T08:35:58.642Z,100145.94
2019-03-11T08:37:03.100Z,100153.58
2019-03-11T08:38:07.413Z,100150.92
2019-03-11T08:39:12.093Z,100154.25
2019-03-11T08:40:16.446Z,100148.94
2019-03-11T08:41:20.844Z,100159.27
2019-03-11T08:42:25.111Z,100144.32
2019-03-11T08:43:29.474Z,100156.28
2019-03-11T08:44:33.931Z,100154.16
2019-03-11T08:45:38.301Z,100152.50
2019-03-11T08:46:44.570Z,100156.31
2019-03-11T08:47:47.285Z,100158.84
2019-03-11T08:48:51.638Z,100153.70
2019-03-11T08:49:56.009Z,100152.73
2019-03-11T08:51:00.314Z,100155.02
2019-03-11T08:52:05.494Z,100154.22
2019-03-11T08:53:09.057Z,100155.05
2019-03-11T08:54:13.670Z,100147.41
2019-03-11T08:55:18.138Z,100152.27
2019-03-11T08:56:22.458Z,100149.11
2019-03-11T08:57:26.833Z,100153.92
2019-03-11T08:58:31.166Z,100156.91
2019-03-11T08:59:35.502Z,100154.06
2019-03-11T09:00:39.826Z,100155.55
2019-03-11T09:01:44.164Z,100157.88
2019-03-11T09:02:48.607Z,100147.41
2019-03-11T09:03:52.958Z,100152.89
2019-03-11T09:04:57.381Z,100149.11
2019-03-11T09:06:01.733Z,100150.59
2019-03-11T09:07:06.028Z,100156.25
2019-03-11T09:08:10.354Z,100154.75
2019-03-11T09:09:14.693Z,100162.89
2019-03-11T09:10:19.127Z,100160.73
2019-03-11T09:11:23.401Z,100159.08
2019-03-11T09:12:27.803Z,100166.41
2019-03-11T09:13:32.325Z,100161.77
2019-03-11T09:14:36.742Z,100168.58
2019-03-11T09:15:41.070Z,100165.78
2019-03-11T09:16:45.410Z,100170.10
2019-03-11T09:17:49.912Z,100167.44
2019-03-11T09:18:54.230Z,100175.08
2019-03-11T09:19:58.526Z,100178.77
2019-03-11T09:21:04.986Z,100170.09
2019-03-11T09:22:07.504Z,100170.95
2019-03-11T09:23:11.797Z,100168.63
2019-03-11T09:24:19.537Z,100175.41
2019-03-11T09:25:20.725Z,100177.44
2019-03-11T09:26:25.150Z,100177.11
2019-03-11T09:27:29.513Z,100180.41
2019-03-11T09:28:33.847Z,100184.73
2019-03-11T09:29:38.183Z,100181.08
2019-03-11T09:30:42.530Z,100184.06
2019-03-11T09:31:46.925Z,100186.06
2019-03-11T09:32:51.327Z,100179.41
2019-03-11T09:33:55.770Z,100181.59
2019-03-11T09:35:00.251Z,100176.44
2019-03-11T09:36:04.536Z,100180.45
2019-03-11T09:37:08.928Z,100188.95
2019-03-11T09:38:13.146Z,100187.13
2019-03-11T09:39:17.493Z,100181.97
2019-03-11T09:40:21.975Z,100195.27
2019-03-11T09:41:26.348Z,100187.95
2019-03-11T09:42:30.708Z,100179.47
2019-03-11T09:43:35.119Z,100187.79
2019-03-11T09:44:39.519Z,100189.48
2019-03-11T09:45:43.985Z,100182.98
2019-03-11T09:46:48.353Z,100183.81
2019-03-11T09:47:52.872Z,100190.46
2019-03-11T09:48:57.351Z,100185.50
2019-03-11T09:50:01.664Z,100186.82
2019-03-11T09:51:06.171Z,100191.14
2019-03-11T09:52:10.480Z,100189.64
2019-03-11T09:53:14.964Z,100191.67
2019-03-11T09:54:19.297Z,100195.66
2019-03-11T09:55:23.612Z,100192.84
2019-03-11T09:56:28.006Z,100192.14
2019-03-11T09:57:32.333Z,100193.84
2019-03-11T09:58:36.798Z,100194.98
2019-03-11T09:59:41.146Z,100197.48
2019-03-11T10:00:45.605Z,100196.52
2019-03-11T10:01:50.013Z,100192.67
2019-03-11T10:02:54.291Z,100202.50
2019-03-11T10:03:58.740Z,100205.31
2019-03-11T10:05:03.069Z,100193.16
2019-03-11T10:06:07.411Z,100203.83
2019-03-11T10:07:11.948Z,100200.66
2019-03-11T10:08:16.372Z,100202.67
2019-03-11T10:09:20.690Z,100202.98
2019-03-11T10:10:25.151Z,100210.14
2019-03-11T10:11:29.452Z,100212.97
2019-03-11T10:12:33.994Z,100206.65
2019-03-11T10:13:38.499Z,100210.48
2019-03-11T10:14:42.878Z,100202.81
2019-03-11T10:15:47.186Z,100198.51
2019-03-11T10:16:51.634Z,100196.50
2019-03-11T10:17:56.135Z,100202.00
2019-03-11T10:19:00.560Z,100206.67
2019-03-11T10:20:05.555Z,100201.81
2019-03-11T10:21:09.957Z,100205.66
2019-03-11T10:22:14.392Z,100204.48
2019-03-11T10:23:18.710Z,100202.84
2019-03-11T10:24:23.102Z,100208.83
2019-03-11T10:25:27.519Z,100214.67
2019-03-11T10:26:31.800Z,100202.34
2019-03-11T10:27:36.278Z,100214.16
2019-03-11T10:28:40.536Z,100211.66
2019-03-11T10:29:44.948Z,100212.81
2019-03-11T10:30:49.350Z,100208.47
2019-03-11T10:31:53.561Z,100211.82
2019-03-11T10:32:57.968Z,100206.82
2019-03-11T10:34:02.162Z,100215.95
2019-03-11T10:35:26.611Z,100226.78
2019-03-11T10:36:11.981Z,100216.78
2019-03-11T10:37:16.228Z,100228.44
2019-03-11T10:38:20.569Z,100211.30
2019-03-11T10:39:24.925Z,100222.78
2019-03-11T10:40:29.406Z,100212.63
2019-03-11T10:41:33.790Z,100220.80
2019-03-11T10:42:38.310Z,100219.79
2019-03-11T10:43:42.651Z,100219.45
2019-03-11T10:44:46.929Z,100224.11
2019-03-11T10:45:51.426Z,100225.44
2019-03-11T10:46:56.174Z,100219.79
2019-03-11T10:48:00.731Z,100223.75
2019-03-11T10:49:05.247Z,100226.78
2019-03-11T10:50:10.038Z,100227.11
2019-03-11T10:51:14.382Z,100230.59
2019-03-11T10:52:18.901Z,100216.08
2019-03-11T10:53:23.297Z,100223.42
2019-03-11T10:54:27.646Z,100226.74
2019-03-11T10:55:32.113Z,100236.41
2019-03-11T10:56:36.288Z,100226.22
2019-03-11T10:57:40.563Z,100225.06
2019-03-11T10:58:44.627Z,100232.70
2019-03-11T10:59:48.795Z,100237.70
2019-03-11T11:00:53.002Z,100238.69
2019-03-11T11:01:57.040Z,100247.14
2019-03-11T11:03:02.826Z,100238.23
2019-03-11T11:04:07.542Z,100238.34
2019-03-11T11:05:11.664Z,100243.06
2019-03-11T11:06:17.244Z,100235.42
2019-03-11T11:07:19.990Z,100241.20
2019-03-11T11:08:24.144Z,100245.70
2019-03-11T11:09:28.522Z,100238.55
2019-03-11T11:10:32.837Z,100245.53
2019-03-11T11:11:37.193Z,100242.09
2019-03-11T11:12:41.662Z,100243.89
2019-03-11T11:13:46.288Z,100239.42
2019-03-11T11:14:50.654Z,100239.30
2019-03-11T11:15:55.244Z,100240.61
2019-03-11T11:17:00.301Z,100245.41
2019-03-11T11:18:05.002Z,100242.64
2019-03-11T11:19:09.644Z,100248.71
2019-03-11T11:20:14.017Z,100249.39
2019-03-11T11:21:18.651Z,100248.08
2019-03-11T11:22:22.859Z,100254.53
2019-03-11T11:23:27.005Z,100252.22
2019-03-11T11:24:31.518Z,100248.96
2019-03-11T11:25:35.725Z,100250.61
2019-03-11T11:26:39.882Z,100241.73
2019-03-11T11:27:44.087Z,100245.48
2019-03-11T11:28:48.202Z,100257.58
2019-03-11T11:29:52.299Z,100242.95
2019-03-11T11:30:56.354Z,100242.91
2019-03-11T11:32:00.525Z,100250.05
2019-03-11T11:33:04.693Z,100254.02
2019-03-11T11:34:09.211Z,100249.27
2019-03-11T11:35:13.626Z,100261.47
2019-03-11T11:36:17.715Z,100256.11
2019-03-11T11:37:23.421Z,100257.34
2019-03-11T11:38:27.484Z,100255.70
2019-03-11T11:39:31.740Z,100255.17
2019-03-11T11:40:35.979Z,100259.93
2019-03-11T11:41:41.841Z,100258.38
2019-03-11T11:42:46.095Z,100258.07
2019-03-11T11:43:50.202Z,100256.31
2019-03-11T11:44:54.255Z,100263.96
2019-03-11T11:45:58.488Z,100266.67
2019-03-11T11:47:02.644Z,100266.26
2019-03-11T11:48:08.302Z,100264.49
2019-03-11T11:49:11.044Z,100255.55
2019-03-11T11:50:17.031Z,100265.31
2019-03-11T11:51:21.202Z,100266.66
2019-03-11T11:52:25.264Z,100263.50
2019-03-11T11:53:29.309Z,100271.44
2019-03-11T11:54:33.415Z,100277.98
2019-03-11T11:55:37.473Z,100271.66
2019-03-11T11:56:41.681Z,100273.91
2019-03-11T11:57:45.843Z,100290.19
2019-03-11T11:58:49.901Z,100283.24
2019-03-11T11:59:54.476Z,100283.59
2019-03-11T12:00:58.062Z,100286.77
2019-03-11T12:02:04.084Z,100274.24
2019-03-11T12:03:06.483Z,100281.77
2019-03-11T12:04:13.444Z,100280.89
2019-03-11T12:05:15.026Z,100277.15
2019-03-11T12:06:19.205Z,100273.72
2019-03-11T12:07:23.338Z,100269.70
2019-03-11T12:08:27.489Z,100284.27
2019-03-11T12:09:32.042Z,100271.88
2019-03-11T12:10:36.174Z,100275.09
2019-03-11T12:11:40.417Z,100293.14
2019-03-11T12:12:44.589Z,100278.52
2019-03-11T12:13:48.778Z,100276.07
2019-03-11T12:14:52.942Z,100281.30
2019-03-11T12:15:56.986Z,100292.27
2019-03-11T12:17:01.045Z,100285.53
2019-03-11T12:18:05.356Z,100288.91
2019-03-11T12:19:09.499Z,100285.34
2019-03-11T12:20:15.807Z,100289.70
2019-03-11T12:21:20.044Z,100307.09
2019-03-11T12:22:24.241Z,100302.22
2019-03-11T12:23:28.549Z,100294.31
2019-03-11T12:24:32.619Z,100293.23
2019-03-11T12:25:36.726Z,100291.53
2019-03-11T12:26:40.833Z,100293.86
2019-03-11T12:27:53.116Z,100293.82
2019-03-11T12:28:49.206Z,100296.75
2019-03-11T12:29:53.568Z,100291.55
2019-03-11T12:30:57.863Z,100298.91
2019-03-11T12:32:01.948Z,100297.86
2019-03-11T12:33:06.077Z,100297.56
2019-03-11T12:34:10.260Z,100297.20
2019-03-11T12:35:14.740Z,100303.98
2019-03-11T12:36:19.997Z,100306.16
2019-03-11T12:37:24.206Z,100298.05
2019-03-11T12:38:28.973Z,100294.97
2019-03-11T12:39:32.781Z,100297.48
2019-03-11T12:40:36.932Z,100300.80
2019-03-11T12:41:41.008Z,100298.08
2019-03-11T12:42:45.227Z,100299.15
2019-03-11T12:43:49.293Z,100301.34
2019-03-11T12:44:53.826Z,100309.87
2019-03-11T12:45:57.609Z,100308.15
2019-03-11T12:47:01.668Z,100305.91
2019-03-11T12:48:05.868Z,100304.69